createdAt,value
2023-04-05T00:02:01.690Z,5.67
2023-04-05T00:04:34.982Z,5.85
2023-04-05T00:07:08.558Z,6.15
2023-04-05T00:09:40.587Z,5.70
2023-04-05T00:12:12.869Z,5.97
2023-04-05T00:14:44.846Z,5.83
2023-04-05T00:17:17.230Z,5.97
2023-04-05T00:19:50.826Z,6.17
2023-04-05T00:22:24.442Z,5.83
2023-04-05T00:24:56.492Z,6.23
2023-04-05T00:27:28.603Z,6.25
2023-04-05T00:30:01.422Z,6.30
2023-04-05T00:32:34.755Z,6.40
2023-04-05T00:35:07.509Z,5.70
2023-04-05T00:37:39.487Z,7.00
2023-04-05T00:40:12.130Z,6.53
2023-04-05T00:42:44.607Z,6.90
2023-04-05T00:45:16.842Z,7.20
2023-04-05T00:47:49.120Z,7.33
2023-04-05T00:50:21.967Z,6.95
2023-04-05T00:52:54.298Z,6.67
2023-04-05T00:55:27.732Z,7.00
2023-04-05T00:57:59.798Z,7.12
2023-04-05T01:00:32.164Z,7.42
2023-04-05T01:03:05.984Z,7.90
2023-04-05T01:05:54.282Z,7.97
2023-04-05T01:08:40.977Z,7.55
2023-04-05T01:11:14.546Z,7.53
2023-04-05T01:13:49.544Z,8.08
2023-04-05T01:16:21.928Z,7.97
2023-04-05T01:18:56.757Z,8.15
2023-04-05T01:21:40.648Z,7.60
2023-04-05T01:24:50.956Z,8.30
2023-04-05T01:27:26.197Z,9.13
2023-04-05T01:30:16.137Z,8.43
2023-04-05T01:33:08.097Z,7.50
2023-04-05T01:35:54.830Z,8.40
2023-04-05T01:38:28.566Z,8.63
2023-04-05T01:41:00.823Z,8.73
2023-04-05T01:43:32.905Z,7.97
2023-04-05T01:46:06.443Z,8.50
2023-04-05T01:48:38.626Z,10.90
2023-04-05T01:51:10.811Z,8.08
2023-04-05T01:53:43.022Z,7.83
2023-04-05T01:56:15.215Z,8.45
2023-04-05T01:58:47.276Z,8.00
2023-04-05T02:01:19.641Z,8.40
2023-04-05T02:03:51.817Z,8.20
2023-04-05T02:06:24.525Z,8.58
2023-04-05T02:08:56.759Z,7.90
2023-04-05T02:11:28.833Z,8.20
2023-04-05T02:14:02.649Z,8.35
2023-04-05T02:16:36.503Z,8.25
2023-04-05T02:19:08.481Z,8.43
2023-04-05T02:21:41.039Z,9.60
2023-04-05T02:24:13.123Z,8.88
2023-04-05T02:26:45.277Z,7.97
2023-04-05T02:29:17.295Z,8.03
2023-04-05T02:31:49.350Z,7.62
2023-04-05T02:34:23.165Z,8.08
2023-04-05T02:36:56.208Z,9.38
2023-04-05T02:39:29.239Z,8.13
2023-04-05T02:42:01.430Z,8.55
2023-04-05T02:44:33.729Z,7.97
2023-04-05T02:47:06.251Z,8.10
2023-04-05T02:49:39.616Z,7.00
2023-04-05T02:52:13.405Z,7.57
2023-04-05T02:54:47.062Z,7.33
2023-04-05T02:57:20.156Z,7.10
2023-04-05T02:59:53.784Z,7.75
2023-04-05T03:02:26.084Z,7.30
2023-04-05T03:04:58.392Z,8.43
2023-04-05T03:07:30.789Z,8.63
2023-04-05T03:10:03.504Z,7.87
2023-04-05T03:12:35.739Z,8.00
2023-04-05T03:15:09.031Z,8.38
2023-04-05T03:17:44.485Z,8.25
2023-04-05T03:22:48.758Z,7.42
2023-04-05T03:25:22.044Z,8.35
2023-04-05T03:27:55.753Z,8.25
2023-04-05T03:30:30.894Z,7.58
2023-04-05T03:33:04.956Z,8.55
2023-04-05T03:35:41.490Z,8.05
2023-04-05T03:38:14.933Z,8.10
2023-04-05T03:40:54.769Z,7.45
2023-04-05T03:43:27.949Z,7.62
2023-04-05T03:46:00.875Z,7.10
2023-04-05T03:48:34.538Z,8.23
2023-04-05T03:51:08.133Z,7.92
2023-04-05T03:53:40.985Z,8.50
2023-04-05T03:56:13.756Z,7.85
2023-04-05T03:58:52.603Z,11.68
2023-04-05T04:01:26.253Z,7.47
2023-04-05T04:03:59.974Z,8.45
2023-04-05T04:06:32.914Z,7.95
2023-04-05T04:09:06.377Z,9.73
2023-04-05T04:11:38.360Z,5.35
2023-04-05T04:14:11.903Z,5.80
2023-04-05T04:17:00.412Z,8.15
2023-04-05T04:19:45.940Z,7.25
2023-04-05T04:22:22.764Z,6.97
2023-04-05T04:24:56.448Z,8.23
2023-04-05T04:27:44.937Z,6.78
2023-04-05T04:30:22.790Z,6.80
2023-04-05T04:32:58.314Z,7.58
2023-04-05T04:35:37.057Z,8.28
2023-04-05T04:38:22.477Z,7.30
2023-04-05T04:41:15.264Z,7.10
2023-04-05T04:43:49.179Z,5.90
2023-04-05T04:46:39.522Z,7.00
2023-04-05T04:49:13.634Z,5.40
2023-04-05T04:51:47.706Z,6.17
2023-04-05T04:54:21.065Z,5.28
2023-04-05T04:56:53.152Z,5.12
2023-04-05T04:59:25.698Z,5.83
2023-04-05T05:01:58.678Z,5.97
2023-04-05T05:04:31.896Z,7.05
2023-04-05T05:07:03.925Z,6.20
2023-04-05T05:09:37.794Z,6.17
2023-04-05T05:12:09.963Z,5.47
2023-04-05T05:14:42.124Z,6.92
2023-04-05T05:17:14.490Z,5.80
2023-04-05T05:19:47.713Z,5.72
2023-04-05T05:22:20.512Z,6.08
2023-04-05T05:24:53.162Z,6.92
2023-04-05T05:27:25.272Z,4.90
2023-04-05T05:29:57.468Z,7.30
2023-04-05T05:32:30.257Z,5.85
2023-04-05T05:35:03.154Z,5.58
2023-04-05T05:37:36.722Z,5.17
2023-04-05T05:40:10.511Z,5.42
2023-04-05T05:42:43.078Z,5.55
2023-04-05T05:45:15.273Z,7.05
2023-04-05T05:47:47.658Z,5.28
2023-04-05T05:50:20.904Z,6.20
2023-04-05T05:52:53.064Z,5.80
2023-04-05T05:55:25.221Z,7.05
2023-04-05T05:57:57.632Z,5.12
2023-04-05T06:00:30.076Z,5.05
2023-04-05T06:03:02.649Z,5.65
2023-04-05T06:05:34.986Z,4.92
2023-04-05T06:08:07.195Z,5.08
2023-04-05T06:10:40.160Z,6.05
2023-04-05T06:13:12.584Z,4.75
2023-04-05T06:15:45.187Z,4.62
2023-04-05T06:18:18.016Z,4.30
2023-04-05T06:20:50.031Z,5.95
2023-04-05T06:23:22.561Z,6.78
2023-04-05T06:25:56.867Z,4.72
2023-04-05T06:28:29.773Z,4.00
2023-04-05T06:31:02.122Z,4.47
2023-04-05T06:33:34.254Z,4.62
2023-04-05T06:36:07.899Z,5.15
2023-04-05T06:38:40.234Z,4.20
2023-04-05T06:41:12.828Z,4.15
2023-04-05T06:43:45.756Z,4.20
2023-04-05T06:46:17.921Z,3.83
2023-04-05T06:48:51.927Z,3.75
2023-04-05T06:51:25.534Z,5.28
2023-04-05T06:53:57.993Z,3.77
2023-04-05T06:56:30.633Z,5.58
2023-04-05T06:59:03.151Z,4.03
2023-04-05T07:01:36.054Z,4.42
2023-04-05T07:04:08.492Z,5.67
2023-04-05T07:06:41.014Z,5.25
2023-04-05T07:09:13.713Z,4.37
2023-04-05T07:11:46.346Z,4.12
2023-04-05T07:14:18.757Z,4.53
2023-04-05T07:16:52.937Z,5.35
2023-04-05T07:19:24.914Z,5.00
2023-04-05T07:21:57.413Z,7.28
2023-04-05T07:24:29.481Z,5.83
2023-04-05T07:27:03.190Z,4.95
2023-04-05T07:29:36.884Z,4.73
2023-04-05T07:32:09.618Z,6.13
2023-04-05T07:34:41.857Z,5.90
2023-04-05T07:37:14.293Z,5.08
2023-04-05T07:39:46.746Z,5.67
2023-04-05T07:42:21.040Z,5.03
2023-04-05T07:44:53.193Z,5.45
2023-04-05T07:47:25.570Z,5.03
2023-04-05T07:49:58.129Z,6.37
2023-04-05T07:52:30.956Z,13.03
2023-04-05T07:55:03.538Z,5.45
2023-04-05T07:57:36.605Z,4.78
2023-04-05T08:00:13.587Z,5.55
2023-04-05T08:02:46.096Z,5.28
2023-04-05T08:05:18.537Z,6.30
2023-04-05T08:07:51.171Z,5.12
2023-04-05T08:10:23.518Z,5.40
2023-04-05T08:12:55.582Z,5.65
2023-04-05T08:15:28.509Z,4.90
2023-04-05T08:18:01.096Z,5.67
2023-04-05T08:20:34.871Z,5.87
2023-04-05T08:23:08.279Z,5.97
2023-04-05T08:25:42.542Z,5.25
2023-04-05T08:28:15.042Z,5.10
2023-04-05T08:30:47.515Z,5.03
2023-04-05T08:33:20.035Z,4.87
2023-04-05T08:35:52.503Z,5.10
2023-04-05T08:38:26.586Z,4.78
2023-04-05T08:41:01.208Z,4.97
2023-04-05T08:43:58.710Z,6.50
2023-04-05T08:46:35.912Z,4.10
2023-04-05T08:49:09.408Z,4.95
2023-04-05T08:51:41.807Z,6.25
2023-04-05T08:54:14.889Z,5.25
2023-04-05T08:56:52.100Z,4.62
2023-04-05T08:59:24.898Z,4.95
2023-04-05T09:01:59.902Z,5.37
2023-04-05T09:04:35.885Z,5.83
2023-04-05T09:07:10.238Z,6.92
2023-04-05T09:09:45.362Z,4.47
2023-04-05T09:12:17.895Z,4.90
2023-04-05T09:14:51.668Z,5.30
2023-04-05T09:17:25.274Z,5.40
2023-04-05T09:19:57.461Z,5.03
2023-04-05T09:22:29.961Z,6.75
2023-04-05T09:25:02.913Z,4.70
2023-04-05T09:27:35.029Z,5.75
2023-04-05T09:30:10.257Z,4.72
2023-04-05T09:32:45.445Z,4.95
2023-04-05T09:35:40.726Z,4.47
2023-04-05T09:38:13.661Z,5.45
2023-04-05T09:40:48.383Z,6.22
2023-04-05T09:43:43.095Z,6.40
2023-04-05T09:46:34.567Z,4.80
2023-04-05T09:49:08.142Z,4.62
2023-04-05T09:51:41.064Z,4.50
2023-04-05T09:54:15.078Z,4.58
2023-04-05T09:56:50.132Z,4.83
2023-04-05T09:59:22.774Z,4.37
2023-04-05T10:01:55.127Z,5.60
2023-04-05T10:04:27.212Z,4.87
2023-04-05T10:06:59.836Z,4.55
2023-04-05T10:09:33.970Z,4.62
2023-04-05T10:12:08.119Z,6.25
2023-04-05T10:14:40.954Z,6.70
2023-04-05T10:17:16.780Z,5.22
2023-04-05T10:20:00.892Z,5.08
2023-04-05T10:22:45.131Z,4.33
2023-04-05T10:25:29.119Z,4.62
2023-04-05T10:28:15.386Z,3.58
2023-04-05T10:30:50.090Z,5.95
2023-04-05T10:33:25.087Z,3.90
2023-04-05T10:36:16.505Z,4.45
2023-04-05T10:39:04.619Z,4.33
2023-04-05T10:41:40.088Z,4.97
2023-04-05T10:44:25.074Z,5.83
2023-04-05T10:46:47.378Z,4.70
2023-04-05T10:49:43.923Z,5.00
2023-04-05T10:52:17.868Z,6.03
2023-04-05T10:54:51.735Z,4.22
2023-04-05T10:57:25.601Z,4.55
2023-04-05T10:59:59.446Z,6.53
2023-04-05T11:02:33.817Z,4.15
2023-04-05T11:05:06.852Z,4.37
2023-04-05T11:07:45.919Z,5.40
2023-04-05T11:10:19.707Z,5.33
2023-04-05T11:12:56.335Z,5.37
2023-04-05T11:15:33.509Z,5.03
2023-04-05T11:18:08.656Z,3.98
2023-04-05T11:20:46.656Z,4.85
2023-04-05T11:23:21.737Z,4.67
2023-04-05T11:25:59.858Z,4.80
2023-04-05T11:28:40.878Z,5.20
2023-04-05T11:31:19.728Z,4.62
2023-04-05T11:33:59.100Z,5.37
2023-04-05T11:36:41.600Z,4.40
2023-04-05T11:39:24.234Z,6.08
2023-04-05T11:42:02.325Z,7.78
2023-04-05T11:44:52.641Z,5.03
2023-04-05T11:47:24.915Z,4.33
2023-04-05T11:49:57.084Z,4.70
2023-04-05T11:52:29.872Z,5.37
2023-04-05T11:55:03.674Z,4.45
2023-04-05T11:57:37.869Z,4.37
2023-04-05T12:00:11.248Z,4.20
2023-04-05T12:02:45.070Z,4.05
2023-04-05T12:05:17.716Z,3.62
2023-04-05T12:07:57.234Z,4.12
2023-04-05T12:10:30.967Z,4.40
2023-04-05T12:13:03.872Z,4.30
2023-04-05T12:15:41.244Z,3.70
2023-04-05T12:18:16.814Z,4.40
2023-04-05T12:20:49.543Z,3.65
2023-04-05T12:23:23.035Z,4.03
2023-04-05T12:25:57.784Z,4.23
2023-04-05T12:28:49.363Z,3.72
2023-04-05T12:31:43.054Z,3.58
2023-04-05T12:34:16.558Z,4.35
2023-04-05T12:36:48.941Z,4.33
2023-04-05T12:39:22.696Z,3.90
2023-04-05T12:42:01.346Z,4.47
2023-04-05T12:44:35.764Z,3.90
2023-04-05T12:47:09.403Z,4.37
2023-04-05T12:49:41.432Z,5.13
2023-04-05T12:52:14.889Z,4.28
2023-04-05T12:54:50.124Z,3.55
2023-04-05T12:57:35.685Z,4.30
2023-04-05T13:00:10.440Z,4.30
2023-04-05T13:02:42.717Z,4.95
2023-04-05T13:05:14.843Z,4.12
2023-04-05T13:07:47.495Z,3.62
2023-04-05T13:10:21.636Z,3.20
2023-04-05T13:12:54.168Z,4.60
2023-04-05T13:15:27.319Z,3.15
2023-04-05T13:17:59.627Z,4.12
2023-04-05T13:20:32.160Z,4.03
2023-04-05T13:23:04.135Z,2.90
2023-04-05T13:25:36.221Z,6.00
2023-04-05T13:28:09.180Z,2.52
2023-04-05T13:30:41.245Z,3.22
2023-04-05T13:33:13.315Z,4.67
2023-04-05T13:35:46.181Z,3.98
2023-04-05T13:38:18.391Z,2.80
2023-04-05T13:40:50.255Z,3.00
2023-04-05T13:43:22.604Z,3.30
2023-04-05T13:45:54.983Z,4.33
2023-04-05T13:48:27.269Z,4.30
2023-04-05T13:50:59.315Z,2.75
2023-04-05T13:53:31.732Z,3.37
2023-04-05T13:56:03.699Z,3.30
2023-04-05T13:58:36.230Z,3.25
2023-04-05T14:01:08.644Z,2.77
2023-04-05T14:03:41.721Z,3.58
2023-04-05T14:06:13.922Z,3.10
2023-04-05T14:08:46.274Z,2.30
2023-04-05T14:11:18.307Z,3.42
2023-04-05T14:13:51.650Z,3.60
2023-04-05T14:16:24.576Z,2.40
2023-04-05T14:18:56.732Z,2.92
2023-04-05T14:21:29.288Z,3.67
2023-04-05T14:24:01.838Z,3.80
2023-04-05T14:26:35.542Z,2.40
2023-04-05T14:29:07.645Z,4.35
2023-04-05T14:31:40.439Z,2.75
2023-04-05T14:34:13.715Z,2.83
2023-04-05T14:36:46.062Z,3.17
2023-04-05T14:39:18.726Z,2.83
2023-04-05T14:41:53.034Z,3.22
2023-04-05T14:44:27.141Z,2.65
2023-04-05T14:46:59.472Z,2.52
2023-04-05T14:49:31.674Z,3.27
2023-04-05T14:52:04.153Z,3.52
2023-04-05T14:54:36.248Z,3.08
2023-04-05T14:57:08.490Z,2.50
2023-04-05T14:59:40.804Z,2.98
2023-04-05T15:02:13.200Z,3.50
2023-04-05T15:04:45.475Z,4.65
2023-04-05T15:07:17.849Z,4.15
2023-04-05T15:09:50.033Z,4.47
2023-04-05T15:12:22.364Z,4.40
2023-04-05T15:14:54.736Z,3.10
2023-04-05T15:17:27.174Z,3.33
2023-04-05T15:19:59.899Z,2.80
2023-04-05T15:22:33.041Z,3.00
2023-04-05T15:25:06.242Z,4.67
2023-04-05T15:27:38.318Z,3.00
2023-04-05T15:30:11.407Z,2.65
2023-04-05T15:32:44.036Z,2.90
2023-04-05T15:35:16.456Z,3.37
2023-04-05T15:37:48.809Z,2.98
2023-04-05T15:40:21.389Z,3.05
2023-04-05T15:42:55.182Z,3.60
2023-04-05T15:45:27.515Z,2.83
2023-04-05T15:48:00.048Z,3.55
2023-04-05T15:50:32.765Z,3.58
2023-04-05T15:53:05.062Z,3.30
2023-04-05T15:55:37.133Z,3.27
2023-04-05T15:58:09.302Z,2.72
2023-04-05T16:00:41.838Z,4.08
2023-04-05T16:03:14.607Z,3.17
2023-04-05T16:05:46.798Z,3.22
2023-04-05T16:08:18.935Z,3.25
2023-04-05T16:10:51.169Z,4.08
2023-04-05T16:13:23.424Z,3.77
2023-04-05T16:15:55.793Z,3.98
2023-04-05T16:18:29.792Z,4.67
2023-04-05T16:21:02.029Z,4.25
2023-04-05T16:23:34.245Z,3.10
2023-04-05T16:26:06.535Z,4.00
2023-04-05T16:28:38.674Z,3.05
2023-04-05T16:31:11.199Z,4.33
2023-04-05T16:33:43.302Z,3.90
2023-04-05T16:36:15.459Z,3.00
2023-04-05T16:38:47.635Z,3.58
2023-04-05T16:41:19.932Z,3.17
2023-04-05T16:43:53.337Z,4.70
2023-04-05T16:46:26.591Z,3.77
2023-04-05T16:48:59.707Z,3.50
2023-04-05T16:51:32.012Z,4.45
2023-04-05T16:54:04.171Z,4.45
2023-04-05T16:56:37.169Z,3.50
2023-04-05T16:59:09.930Z,3.35
2023-04-05T17:01:42.662Z,3.47
2023-04-05T17:04:15.463Z,3.35
2023-04-05T17:06:47.991Z,3.37
2023-04-05T17:09:21.793Z,4.00
2023-04-05T17:11:53.878Z,4.90
2023-04-05T17:14:26.667Z,2.90
2023-04-05T17:16:59.201Z,3.25
2023-04-05T17:19:31.714Z,3.52
2023-04-05T17:22:03.678Z,3.75
2023-04-05T17:24:37.087Z,4.42
2023-04-05T17:27:09.085Z,8.18
2023-04-05T17:29:41.355Z,3.65
2023-04-05T17:32:13.577Z,4.53
2023-04-05T17:34:45.774Z,4.40
2023-04-05T17:37:17.846Z,4.17
2023-04-05T17:39:50.116Z,4.50
2023-04-05T17:42:22.727Z,4.35
2023-04-05T17:44:56.621Z,4.20
2023-04-05T17:47:29.223Z,4.53
2023-04-05T17:50:01.291Z,4.42
2023-04-05T17:52:33.531Z,3.95
2023-04-05T17:55:06.385Z,4.62
2023-04-05T17:57:38.566Z,3.75
2023-04-05T18:00:12.156Z,3.15
2023-04-05T18:02:45.614Z,3.40
2023-04-05T18:05:18.240Z,4.10
2023-04-05T18:07:50.654Z,3.62
2023-04-05T18:10:23.764Z,7.33
2023-04-05T18:12:55.972Z,5.05
2023-04-05T18:15:28.253Z,3.95
2023-04-05T18:18:00.558Z,3.83
2023-04-05T18:20:33.370Z,4.45
2023-04-05T18:23:05.507Z,4.60
2023-04-05T18:25:37.641Z,3.85
2023-04-05T18:28:21.292Z,4.28
2023-04-05T18:30:44.450Z,5.28
2023-04-05T18:33:17.582Z,3.95
2023-04-05T18:35:53.107Z,3.67
2023-04-05T18:38:25.571Z,4.05
2023-04-05T18:41:04.173Z,4.40
2023-04-05T18:43:36.313Z,3.33
2023-04-05T18:46:08.536Z,3.90
2023-04-05T18:48:40.665Z,4.78
2023-04-05T18:51:12.639Z,5.85
2023-04-05T18:53:44.944Z,4.10
2023-04-05T18:56:16.991Z,4.45
2023-04-05T18:58:51.211Z,3.83
2023-04-05T19:01:23.681Z,4.70
2023-04-05T19:03:56.290Z,3.47
2023-04-05T19:06:28.323Z,3.50
2023-04-05T19:09:00.590Z,4.42
2023-04-05T19:11:33.040Z,4.20
2023-04-05T19:14:05.287Z,3.52
2023-04-05T19:16:37.900Z,4.45
2023-04-05T19:19:10.139Z,4.00
2023-04-05T19:21:42.459Z,3.35
2023-04-05T19:24:15.167Z,3.85
2023-04-05T19:26:47.686Z,3.08
2023-04-05T19:29:19.680Z,4.17
2023-04-05T19:31:52.183Z,4.53
2023-04-05T19:34:24.298Z,3.95
2023-04-05T19:36:56.555Z,4.03
2023-04-05T19:39:28.743Z,4.28
2023-04-05T19:42:00.612Z,3.60
2023-04-05T19:44:44.612Z,3.90
2023-04-05T19:47:18.063Z,3.50
2023-04-05T19:49:51.352Z,3.70
2023-04-05T19:52:38.340Z,3.37
2023-04-05T19:55:27.926Z,3.95
2023-04-05T19:58:02.212Z,3.42
2023-04-05T20:00:39.760Z,3.30
2023-04-05T20:03:31.803Z,3.85
2023-04-05T20:06:14.906Z,3.50
2023-04-05T20:08:48.314Z,3.40
2023-04-05T20:11:23.825Z,4.23
2023-04-05T20:13:59.115Z,3.58
2023-04-05T20:16:36.419Z,3.70
2023-04-05T20:19:12.319Z,3.72
2023-04-05T20:21:44.565Z,2.92
2023-04-05T20:24:19.395Z,4.12
2023-04-05T20:26:53.180Z,3.65
2023-04-05T20:29:32.392Z,3.50
2023-04-05T20:32:07.520Z,3.20
2023-04-05T20:34:39.889Z,3.22
2023-04-05T20:37:13.589Z,3.45
2023-04-05T20:39:45.886Z,4.10
2023-04-05T20:42:18.172Z,3.70
2023-04-05T20:44:50.387Z,3.83
2023-04-05T20:47:22.577Z,3.50
2023-04-05T20:49:54.725Z,3.58
2023-04-05T20:52:28.094Z,3.65
2023-04-05T20:55:02.702Z,3.50
2023-04-05T20:57:35.060Z,4.00
2023-04-05T21:00:08.659Z,3.47
2023-04-05T21:02:40.995Z,4.20
2023-04-05T21:05:13.320Z,3.55
2023-04-05T21:07:45.891Z,3.62
2023-04-05T21:10:18.747Z,4.20
2023-04-05T21:12:53.300Z,3.77
2023-04-05T21:15:27.716Z,3.87
2023-04-05T21:20:35.786Z,4.12
2023-04-05T21:23:08.012Z,4.97
2023-04-05T21:25:40.276Z,4.05
2023-04-05T21:28:13.135Z,4.37
2023-04-05T21:30:46.102Z,3.98
2023-04-05T21:33:18.881Z,3.92
2023-04-05T21:35:51.203Z,4.45
2023-04-05T21:38:23.611Z,4.70
2023-04-05T21:40:55.898Z,5.15
2023-04-05T21:43:28.125Z,3.80
2023-04-05T21:46:00.291Z,4.40
2023-04-05T21:48:32.608Z,4.33
2023-04-05T21:51:04.897Z,4.30
2023-04-05T21:53:37.539Z,4.35
2023-04-05T21:56:09.808Z,4.92
2023-04-05T21:58:43.018Z,4.17
2023-04-05T22:01:15.487Z,3.90
2023-04-05T22:03:47.566Z,4.50
2023-04-05T22:06:19.679Z,3.95
2023-04-05T22:08:53.399Z,4.08
2023-04-05T22:11:26.404Z,4.33
2023-04-05T22:13:58.546Z,3.80
2023-04-05T22:16:30.664Z,4.15
2023-04-05T22:19:02.790Z,3.80
2023-04-05T22:21:34.841Z,4.00
2023-04-05T22:24:07.021Z,4.00
2023-04-05T22:26:40.493Z,3.85
2023-04-05T22:29:12.518Z,3.72
2023-04-05T22:31:44.693Z,3.67
2023-04-05T22:34:17.037Z,3.80
2023-04-05T22:36:48.987Z,3.62
2023-04-05T22:39:21.024Z,3.85
2023-04-05T22:41:53.256Z,4.22
2023-04-05T22:44:25.492Z,3.75
2023-04-05T22:46:57.883Z,4.15
2023-04-05T22:49:30.282Z,3.72
2023-04-05T22:52:02.305Z,3.62
2023-04-05T22:54:34.388Z,3.95
2023-04-05T22:57:06.442Z,3.95
2023-04-05T22:59:40.795Z,3.20
2023-04-05T23:02:12.982Z,3.37
2023-04-05T23:04:45.110Z,3.72
2023-04-05T23:07:17.057Z,3.55
2023-04-05T23:09:49.299Z,3.25
2023-04-05T23:12:21.510Z,3.40
2023-04-05T23:14:53.619Z,3.08
2023-04-05T23:17:25.748Z,3.83
2023-04-05T23:19:57.764Z,3.87
2023-04-05T23:22:29.747Z,3.92
2023-04-05T23:25:02.618Z,3.50
2023-04-05T23:27:34.809Z,3.85
2023-04-05T23:30:08.206Z,3.70
2023-04-05T23:32:40.331Z,3.40
2023-04-05T23:35:12.480Z,3.37
2023-04-05T23:37:45.911Z,3.00
2023-04-05T23:40:18.230Z,3.70
2023-04-05T23:42:50.551Z,3.10
2023-04-05T23:45:22.610Z,3.95
2023-04-05T23:47:55.697Z,3.30
2023-04-05T23:50:27.902Z,3.98
2023-04-05T23:53:01.513Z,3.47
2023-04-05T23:55:35.472Z,3.50
2023-04-05T23:58:09.336Z,3.85
